createdAt,value
2023-06-14T00:00:36.893Z,2607.00
2023-06-14T00:01:36.933Z,2608.00
2023-06-14T00:02:36.970Z,2579.00
2023-06-14T00:03:37.009Z,2589.00
2023-06-14T00:04:36.921Z,2591.00
2023-06-14T00:05:36.882Z,2572.00
2023-06-14T00:06:36.832Z,2591.00
2023-06-14T00:07:36.821Z,2596.00
2023-06-14T00:08:36.931Z,2613.00
2023-06-14T00:09:36.806Z,2603.00
2023-06-14T00:10:36.788Z,2590.00
2023-06-14T00:11:36.777Z,2584.00
2023-06-14T00:12:36.759Z,2559.00
2023-06-14T00:13:36.778Z,2550.00
2023-06-14T00:14:36.752Z,2512.00
2023-06-14T00:15:36.706Z,2542.00
2023-06-14T00:16:36.767Z,2542.00
2023-06-14T00:17:36.735Z,2543.00
2023-06-14T00:18:36.671Z,2536.00
2023-06-14T00:19:36.683Z,2554.00
2023-06-14T00:20:36.666Z,2552.00
2023-06-14T00:21:36.658Z,2553.00
2023-06-14T00:22:36.640Z,2566.00
2023-06-14T00:23:36.658Z,2551.00
2023-06-14T00:24:36.770Z,2571.00
2023-06-14T00:25:36.627Z,2560.00
2023-06-14T00:26:36.628Z,2568.00
2023-06-14T00:27:36.644Z,2552.00
2023-06-14T00:28:36.616Z,2562.00
2023-06-14T00:29:36.587Z,2555.00
2023-06-14T00:30:36.569Z,2564.00
2023-06-14T00:31:36.575Z,2521.00
2023-06-14T00:32:36.638Z,2522.00
2023-06-14T00:33:36.572Z,2529.00
2023-06-14T00:34:36.569Z,2486.00
2023-06-14T00:35:36.537Z,2500.00
2023-06-14T00:36:36.594Z,2509.00
2023-06-14T00:37:36.604Z,2497.00
2023-06-14T00:38:36.650Z,2496.00
2023-06-14T00:39:36.672Z,2495.00
2023-06-14T00:40:36.692Z,2489.00
2023-06-14T00:41:36.724Z,2486.00
2023-06-14T00:42:36.754Z,2495.00
2023-06-14T00:43:36.835Z,2493.00
2023-06-14T00:44:36.944Z,2494.00
2023-06-14T00:45:36.937Z,2467.00
2023-06-14T00:46:36.903Z,2446.00
2023-06-14T00:47:36.993Z,2446.00
2023-06-14T00:48:36.930Z,2455.00
2023-06-14T00:49:36.975Z,2447.00
2023-06-14T00:50:37.022Z,2451.00
2023-06-14T00:51:37.042Z,2471.00
2023-06-14T00:52:37.129Z,2435.00
2023-06-14T00:53:37.295Z,2453.00
2023-06-14T00:54:37.229Z,2438.00
2023-06-14T00:55:37.176Z,2404.00
2023-06-14T00:56:37.224Z,2409.00
2023-06-14T00:57:37.222Z,2418.00
2023-06-14T00:58:37.272Z,2339.00
2023-06-14T00:59:37.289Z,2341.00
2023-06-14T01:00:37.321Z,2381.00
2023-06-14T01:01:37.379Z,2361.00
2023-06-14T01:02:37.452Z,2345.00
2023-06-14T01:03:37.497Z,2344.00
2023-06-14T01:04:37.470Z,2349.00
2023-06-14T01:05:37.497Z,2387.00
2023-06-14T01:06:37.546Z,2370.00
2023-06-14T01:07:37.585Z,2379.00
2023-06-14T01:08:37.615Z,2384.00
2023-06-14T01:09:37.644Z,2380.00
2023-06-14T01:10:37.656Z,2374.00
2023-06-14T01:11:37.692Z,2353.00
2023-06-14T01:12:37.722Z,2341.00
2023-06-14T01:13:37.768Z,2369.00
2023-06-14T01:14:37.817Z,2355.00
2023-06-14T01:15:37.831Z,2366.00
2023-06-14T01:16:37.893Z,2337.00
2023-06-14T01:17:37.958Z,2359.00
2023-06-14T01:18:37.941Z,2348.00
2023-06-14T01:19:37.986Z,2309.00
2023-06-14T01:20:38.305Z,2319.00
2023-06-14T01:21:38.047Z,2276.00
2023-06-14T01:22:38.080Z,2298.00
2023-06-14T01:23:38.115Z,2293.00
2023-06-14T01:24:38.156Z,2279.00
2023-06-14T01:25:38.185Z,2295.00
2023-06-14T01:26:38.224Z,2323.00
2023-06-14T01:27:38.265Z,2275.00
2023-06-14T01:28:38.324Z,2291.00
2023-06-14T01:29:38.333Z,2313.00
2023-06-14T01:30:38.372Z,2266.00
2023-06-14T01:31:38.406Z,2271.00
2023-06-14T01:32:38.511Z,2289.00
2023-06-14T01:33:38.560Z,2258.00
2023-06-14T01:34:38.547Z,2268.00
2023-06-14T01:35:38.541Z,2308.00
2023-06-14T01:36:38.915Z,2290.00
2023-06-14T01:37:38.617Z,2324.00
2023-06-14T01:38:38.713Z,2316.00
2023-06-14T01:39:38.694Z,2339.00
2023-06-14T01:40:38.856Z,2312.00
2023-06-14T01:41:38.777Z,2309.00
2023-06-14T01:42:38.800Z,2266.00
2023-06-14T01:43:38.853Z,2283.00
2023-06-14T01:44:38.868Z,2275.00
2023-06-14T01:45:38.904Z,2274.00
2023-06-14T01:46:39.002Z,2284.00
2023-06-14T01:47:39.035Z,2330.00
2023-06-14T01:48:39.040Z,2334.00
2023-06-14T01:49:39.072Z,2339.00
2023-06-14T01:50:39.116Z,2336.00
2023-06-14T01:51:39.153Z,2329.00
2023-06-14T01:52:39.186Z,2341.00
2023-06-14T01:53:39.246Z,2270.00
2023-06-14T01:54:39.276Z,2271.00
2023-06-14T01:55:39.347Z,2262.00
2023-06-14T01:56:39.357Z,2229.00
2023-06-14T01:57:39.331Z,2231.00
2023-06-14T01:58:39.330Z,2234.00
2023-06-14T01:59:39.335Z,2238.00
2023-06-14T02:00:39.328Z,2239.00
2023-06-14T02:01:39.342Z,2245.00
2023-06-14T02:02:39.328Z,2280.00
2023-06-14T02:03:39.320Z,2305.00
2023-06-14T02:04:39.244Z,2296.00
2023-06-14T02:05:39.284Z,2302.00
2023-06-14T02:06:39.234Z,2265.00
2023-06-14T02:07:39.261Z,2277.00
2023-06-14T02:08:39.312Z,2291.00
2023-06-14T02:09:39.352Z,2290.00
2023-06-14T02:10:39.376Z,2279.00
2023-06-14T02:11:39.421Z,2287.00
2023-06-14T02:12:39.456Z,2295.00
2023-06-14T02:13:39.494Z,2293.00
2023-06-14T02:14:39.570Z,2291.00
2023-06-14T02:15:39.625Z,2221.00
2023-06-14T02:16:39.656Z,2234.00
2023-06-14T02:17:39.680Z,2264.00
2023-06-14T02:18:39.709Z,2246.00
2023-06-14T02:19:39.748Z,2269.00
2023-06-14T02:20:39.811Z,2275.00
2023-06-14T02:21:39.851Z,2297.00
2023-06-14T02:22:39.885Z,2294.00
2023-06-14T02:23:39.992Z,2328.00
2023-06-14T02:24:39.989Z,2308.00
2023-06-14T02:25:40.019Z,2302.00
2023-06-14T02:26:40.070Z,2319.00
2023-06-14T02:27:40.098Z,2331.00
2023-06-14T02:28:40.170Z,2296.00
2023-06-14T02:29:40.190Z,2256.00
2023-06-14T02:30:40.206Z,2294.00
2023-06-14T02:31:40.312Z,2289.00
2023-06-14T02:32:40.327Z,2305.00
2023-06-14T02:33:40.346Z,2302.00
2023-06-14T02:34:40.390Z,2301.00
2023-06-14T02:35:40.447Z,2316.00
2023-06-14T02:36:40.490Z,2301.00
2023-06-14T02:37:40.545Z,2246.00
2023-06-14T02:38:40.606Z,2255.00
2023-06-14T02:39:40.632Z,2242.00
2023-06-14T02:40:40.705Z,2265.00
2023-06-14T02:41:40.739Z,2265.00
2023-06-14T02:42:40.796Z,2271.00
2023-06-14T02:43:40.851Z,2243.00
2023-06-14T02:44:40.889Z,2260.00
2023-06-14T02:45:40.923Z,2235.00
2023-06-14T02:46:40.991Z,2259.00
2023-06-14T02:47:41.094Z,2268.00
2023-06-14T02:48:41.196Z,2296.00
2023-06-14T02:49:41.120Z,2283.00
2023-06-14T02:50:41.193Z,2266.00
2023-06-14T02:51:41.219Z,2295.00
2023-06-14T02:52:41.257Z,2265.00
2023-06-14T02:53:41.326Z,2286.00
2023-06-14T02:54:41.364Z,2281.00
2023-06-14T02:55:41.624Z,2286.00
2023-06-14T02:56:41.447Z,2272.00
2023-06-14T02:57:41.482Z,2288.00
2023-06-14T02:58:41.592Z,2300.00
2023-06-14T02:59:41.582Z,2282.00
2023-06-14T03:00:41.646Z,2310.00
2023-06-14T03:01:41.688Z,2306.00
2023-06-14T03:02:41.773Z,2318.00
2023-06-14T03:03:41.785Z,2331.00
2023-06-14T03:04:41.827Z,2309.00
2023-06-14T03:05:41.888Z,2332.00
2023-06-14T03:06:41.928Z,2302.00
2023-06-14T03:07:42.061Z,2282.00
2023-06-14T03:08:42.050Z,2290.00
2023-06-14T03:09:42.107Z,2299.00
2023-06-14T03:10:42.140Z,2309.00
2023-06-14T03:11:42.191Z,2312.00
2023-06-14T03:12:42.241Z,2320.00
2023-06-14T03:13:42.280Z,2294.00
2023-06-14T03:14:42.348Z,2262.00
2023-06-14T03:15:42.413Z,2257.00
2023-06-14T03:16:42.533Z,2267.00
2023-06-14T03:17:42.527Z,2259.00
2023-06-14T03:18:42.558Z,2284.00
2023-06-14T03:19:42.664Z,2260.00
2023-06-14T03:20:42.665Z,2269.00
2023-06-14T03:21:42.730Z,2266.00
2023-06-14T03:22:42.774Z,2269.00
2023-06-14T03:23:42.839Z,2259.00
2023-06-14T03:24:42.904Z,2262.00
2023-06-14T03:25:42.918Z,2267.00
2023-06-14T03:26:42.992Z,2263.00
2023-06-14T03:27:43.032Z,2283.00
2023-06-14T03:28:43.092Z,2270.00
2023-06-14T03:29:43.138Z,2292.00
2023-06-14T03:30:43.213Z,2274.00
2023-06-14T03:31:43.232Z,2272.00
2023-06-14T03:32:43.365Z,2286.00
2023-06-14T03:33:43.333Z,2285.00
2023-06-14T03:34:43.393Z,2288.00
2023-06-14T03:35:43.468Z,2304.00
2023-06-14T03:36:43.506Z,2312.00
2023-06-14T03:37:43.549Z,2281.00
2023-06-14T03:38:43.617Z,2286.00
2023-06-14T03:39:43.653Z,2296.00
2023-06-14T03:40:43.694Z,2272.00
2023-06-14T03:41:43.760Z,2282.00
2023-06-14T03:42:43.800Z,2280.00
2023-06-14T03:43:43.869Z,2286.00
2023-06-14T03:44:43.927Z,2286.00
2023-06-14T03:45:43.948Z,2282.00
2023-06-14T03:46:44.005Z,2262.00
2023-06-14T03:47:44.103Z,2293.00
2023-06-14T03:48:44.183Z,2285.00
2023-06-14T03:49:44.156Z,2287.00
2023-06-14T03:50:44.231Z,2298.00
2023-06-14T03:51:44.269Z,2293.00
2023-06-14T03:52:44.306Z,2278.00
2023-06-14T03:54:02.399Z,2289.00
2023-06-14T03:56:44.360Z,2289.00
2023-06-14T03:57:44.337Z,2290.00
2023-06-14T03:58:44.344Z,2297.00
2023-06-14T03:59:44.340Z,2297.00
2023-06-14T04:00:44.406Z,2313.00
2023-06-14T04:01:44.342Z,2315.00
2023-06-14T04:02:44.401Z,2285.00
2023-06-14T04:03:44.520Z,2279.00
2023-06-14T04:04:44.364Z,2299.00
2023-06-14T04:05:44.424Z,2271.00
2023-06-14T04:06:44.389Z,2287.00
2023-06-14T04:07:44.385Z,2281.00
2023-06-14T04:08:44.387Z,2293.00
2023-06-14T04:09:44.389Z,2304.00
2023-06-14T04:10:44.390Z,2307.00
2023-06-14T04:11:44.424Z,2302.00
2023-06-14T04:12:44.581Z,2302.00
2023-06-14T04:13:44.398Z,2309.00
2023-06-14T04:14:44.402Z,2309.00
2023-06-14T04:15:44.408Z,2292.00
2023-06-14T04:16:44.445Z,2266.00
2023-06-14T04:17:44.450Z,2280.00
2023-06-14T04:18:44.423Z,2305.00
2023-06-14T04:19:44.399Z,2309.00
2023-06-14T04:20:44.413Z,2307.00
2023-06-14T04:21:44.504Z,2302.00
2023-06-14T04:22:44.589Z,2295.00
2023-06-14T04:23:44.453Z,2299.00
2023-06-14T04:24:44.414Z,2297.00
2023-06-14T04:25:44.414Z,2319.00
2023-06-14T04:26:44.429Z,2310.00
2023-06-14T04:27:44.414Z,2323.00
2023-06-14T04:28:44.416Z,2317.00
2023-06-14T04:29:44.421Z,2306.00
2023-06-14T04:30:44.470Z,2325.00
2023-06-14T04:31:44.421Z,2334.00
2023-06-14T04:32:44.472Z,2330.00
2023-06-14T04:33:44.847Z,2304.00
2023-06-14T04:34:44.438Z,2318.00
2023-06-14T04:35:44.421Z,2295.00
2023-06-14T04:36:44.413Z,2311.00
2023-06-14T04:37:44.416Z,2306.00
2023-06-14T04:38:44.399Z,2319.00
2023-06-14T04:41:03.079Z,500.00
2023-06-14T04:42:03.049Z,500.00
2023-06-14T04:43:03.028Z,500.00
2023-06-14T04:44:03.004Z,500.00
2023-06-14T04:45:02.981Z,500.00
2023-06-14T04:46:02.984Z,500.00
2023-06-14T04:47:02.948Z,506.00
2023-06-14T04:48:02.926Z,502.00
2023-06-14T04:49:02.924Z,508.00
2023-06-14T04:50:02.874Z,506.00
2023-06-14T04:51:02.854Z,504.00
2023-06-14T04:52:03.289Z,501.00
2023-06-14T04:53:02.813Z,511.00
2023-06-14T04:54:02.794Z,515.00
2023-06-14T04:55:02.782Z,504.00
2023-06-14T04:56:02.758Z,510.00
2023-06-14T04:57:02.757Z,499.00
2023-06-14T04:58:02.738Z,503.00
2023-06-14T04:59:02.730Z,510.00
2023-06-14T05:00:02.751Z,514.00
2023-06-14T05:01:02.798Z,521.00
2023-06-14T05:02:02.704Z,521.00
2023-06-14T05:03:02.753Z,525.00
2023-06-14T05:04:02.678Z,535.00
2023-06-14T05:05:02.627Z,545.00
2023-06-14T05:06:02.607Z,571.00
2023-06-14T05:07:02.596Z,590.00
2023-06-14T05:08:02.567Z,613.00
2023-06-14T05:09:02.560Z,634.00
2023-06-14T05:10:02.596Z,653.00
2023-06-14T05:11:02.676Z,664.00
2023-06-14T05:12:02.713Z,702.00
2023-06-14T05:13:02.770Z,732.00
2023-06-14T05:14:02.806Z,754.00
2023-06-14T05:15:02.846Z,773.00
2023-06-14T05:16:02.960Z,794.00
2023-06-14T05:17:02.941Z,831.00
2023-06-14T05:18:03.023Z,846.00
2023-06-14T05:19:03.060Z,862.00
2023-06-14T05:20:03.090Z,874.00
2023-06-14T05:21:03.139Z,906.00
2023-06-14T05:22:03.191Z,905.00
2023-06-14T05:23:03.220Z,906.00
2023-06-14T05:24:03.338Z,909.00
2023-06-14T05:25:03.363Z,918.00
2023-06-14T05:26:03.368Z,932.00
2023-06-14T05:27:03.448Z,950.00
2023-06-14T05:28:03.397Z,950.00
2023-06-14T05:29:03.370Z,952.00
2023-06-14T05:30:03.351Z,958.00
2023-06-14T05:31:03.401Z,974.00
2023-06-14T05:32:03.368Z,995.00
2023-06-14T05:33:03.322Z,1056.00
2023-06-14T05:34:03.385Z,1081.00
2023-06-14T05:35:03.259Z,1105.00
2023-06-14T05:36:03.328Z,1141.00
2023-06-14T05:37:03.263Z,1142.00
2023-06-14T05:38:03.228Z,1145.00
2023-06-14T05:39:03.215Z,1180.00
2023-06-14T05:40:03.216Z,1232.00
2023-06-14T05:41:03.176Z,1299.00
2023-06-14T05:42:03.197Z,1336.00
2023-06-14T05:43:03.101Z,1337.00
2023-06-14T05:44:03.137Z,1344.00
2023-06-14T05:45:03.106Z,1361.00
2023-06-14T05:46:03.005Z,1393.00
2023-06-14T05:47:03.126Z,1448.00
2023-06-14T05:48:03.046Z,1456.00
2023-06-14T05:49:02.904Z,1469.00
2023-06-14T05:50:02.917Z,1473.00
2023-06-14T05:51:02.975Z,1487.00
2023-06-14T05:52:03.005Z,1508.00
2023-06-14T05:53:03.165Z,1551.00
2023-06-14T05:54:03.032Z,1605.00
2023-06-14T05:55:03.044Z,1645.00
2023-06-14T05:56:03.003Z,1647.00
2023-06-14T05:57:02.973Z,1657.00
2023-06-14T05:58:02.945Z,1674.00
2023-06-14T05:59:02.893Z,1714.00
2023-06-14T06:00:02.871Z,1785.00
2023-06-14T06:01:02.870Z,1823.00
2023-06-14T06:02:02.953Z,1883.00
2023-06-14T06:03:02.819Z,1898.00
2023-06-14T06:04:02.829Z,1934.00
2023-06-14T06:05:02.693Z,1943.00
2023-06-14T06:06:03.277Z,1957.00
2023-06-14T06:07:02.596Z,1987.00
2023-06-14T06:08:02.568Z,2020.00
2023-06-14T06:09:02.529Z,2062.00
2023-06-14T06:10:03.327Z,2102.00
2023-06-14T06:11:02.441Z,2144.00
2023-06-14T06:12:02.420Z,2167.00
2023-06-14T06:13:02.541Z,2172.00
2023-06-14T06:14:02.370Z,2191.00
2023-06-14T06:15:02.356Z,2220.00
2023-06-14T06:16:02.337Z,2230.00
2023-06-14T06:17:02.429Z,2260.00
2023-06-14T06:18:02.343Z,2264.00
2023-06-14T06:19:02.277Z,2260.00
2023-06-14T06:20:02.244Z,2260.00
2023-06-14T06:21:02.244Z,2255.00
2023-06-14T06:22:02.241Z,2253.00
2023-06-14T06:23:02.165Z,2261.00
2023-06-14T06:24:02.188Z,2268.00
2023-06-14T06:25:02.110Z,2285.00
2023-06-14T06:26:02.108Z,2298.00
2023-06-14T06:27:02.054Z,2320.00
2023-06-14T06:28:02.019Z,2322.00
2023-06-14T06:29:01.953Z,2332.00
2023-06-14T06:30:01.926Z,2359.00
2023-06-14T06:31:04.730Z,2397.00
2023-06-14T06:32:01.830Z,2460.00
2023-06-14T06:33:01.859Z,2488.00
2023-06-14T06:34:01.714Z,2461.00
2023-06-14T06:35:01.681Z,2453.00
2023-06-14T06:36:01.646Z,2458.00
2023-06-14T06:37:01.594Z,2463.00
2023-06-14T06:38:01.544Z,2471.00
2023-06-14T06:39:01.487Z,2458.00
2023-06-14T06:40:01.452Z,2448.00
2023-06-14T06:41:01.388Z,2458.00
2023-06-14T06:42:01.361Z,2402.00
2023-06-14T06:43:01.279Z,2429.00
2023-06-14T06:44:01.229Z,2412.00
2023-06-14T06:45:01.293Z,2415.00
2023-06-14T06:46:01.189Z,2422.00
2023-06-14T06:47:01.109Z,2443.00
2023-06-14T06:48:01.056Z,2471.00
2023-06-14T06:49:01.025Z,2542.00
2023-06-14T06:50:01.047Z,2545.00
2023-06-14T06:51:00.922Z,2524.00
2023-06-14T06:52:00.905Z,2475.00
2023-06-14T06:53:00.853Z,2426.00
2023-06-14T06:54:00.802Z,2321.00
2023-06-14T06:55:00.791Z,2282.00
2023-06-14T06:56:00.731Z,2216.00
2023-06-14T06:57:00.693Z,2165.00
2023-06-14T06:58:00.627Z,2039.00
2023-06-14T06:59:00.601Z,1964.00
2023-06-14T07:00:00.553Z,1913.00
2023-06-14T07:01:00.522Z,1863.00
2023-06-14T07:02:00.519Z,1802.00
2023-06-14T07:03:00.776Z,1720.00
2023-06-14T07:04:00.419Z,1650.00
2023-06-14T07:05:00.362Z,1553.00
2023-06-14T07:06:00.395Z,1479.00
2023-06-14T07:07:00.303Z,1393.00
2023-06-14T07:08:00.240Z,1319.00
2023-06-14T07:09:00.787Z,1255.00
2023-06-14T07:10:00.204Z,1198.00
2023-06-14T07:11:00.179Z,1134.00
2023-06-14T07:12:00.152Z,1056.00
2023-06-14T07:13:00.074Z,971.00
2023-06-14T07:14:00.068Z,931.00
2023-06-14T07:15:00.006Z,896.00
2023-06-14T07:16:00.040Z,879.00
2023-06-14T07:16:59.941Z,802.00
2023-06-14T07:17:59.894Z,708.00
2023-06-14T07:18:59.836Z,656.00
2023-06-14T07:19:59.823Z,632.00
2023-06-14T07:20:59.923Z,635.00
2023-06-14T07:21:59.807Z,649.00
2023-06-14T07:23:00.294Z,649.00
2023-06-14T07:23:59.688Z,649.00
2023-06-14T07:24:59.620Z,637.00
2023-06-14T07:25:59.595Z,602.00
2023-06-14T07:26:59.582Z,564.00
2023-06-14T07:27:59.523Z,572.00
2023-06-14T07:28:59.496Z,600.00
2023-06-14T07:29:59.465Z,605.00
2023-06-14T07:30:59.395Z,628.00
2023-06-14T07:31:59.356Z,680.00
2023-06-14T07:32:59.417Z,712.00
2023-06-14T07:33:59.354Z,751.00
2023-06-14T07:34:59.250Z,749.00
2023-06-14T07:35:59.260Z,742.00
2023-06-14T07:36:59.209Z,766.00
2023-06-14T07:37:59.121Z,820.00
2023-06-14T07:38:59.087Z,909.00
2023-06-14T07:39:59.034Z,990.00
2023-06-14T07:40:59.061Z,1059.00
2023-06-14T07:41:59.040Z,1024.00
2023-06-14T07:42:59.004Z,827.00
2023-06-14T07:43:58.966Z,786.00
2023-06-14T07:44:58.934Z,802.00
2023-06-14T07:46:07.464Z,821.00
2023-06-14T07:46:59.840Z,822.00
2023-06-14T07:47:58.923Z,823.00
2023-06-14T07:48:58.885Z,825.00
2023-06-14T07:49:58.746Z,827.00
2023-06-14T07:50:58.703Z,810.00
2023-06-14T07:51:58.677Z,800.00
2023-06-14T07:52:58.682Z,779.00
2023-06-14T07:53:58.577Z,720.00
2023-06-14T07:54:58.551Z,675.00
2023-06-14T07:55:58.512Z,660.00
2023-06-14T07:56:58.482Z,646.00
2023-06-14T07:57:58.439Z,638.00
2023-06-14T07:58:58.420Z,631.00
2023-06-14T07:59:59.325Z,620.00
2023-06-14T08:00:58.312Z,598.00
2023-06-14T08:01:58.278Z,603.00
2023-06-14T08:03:01.167Z,583.00
2023-06-14T08:03:58.351Z,580.00
2023-06-14T08:04:58.152Z,576.00
2023-06-14T08:05:58.136Z,557.00
2023-06-14T08:06:58.192Z,553.00
2023-06-14T08:07:58.047Z,538.00
2023-06-14T08:08:57.977Z,549.00
2023-06-14T08:09:57.964Z,552.00
2023-06-14T08:10:57.997Z,546.00
2023-06-14T08:11:58.034Z,494.00
2023-06-14T08:12:57.869Z,496.00
2023-06-14T08:13:58.399Z,511.00
2023-06-14T08:15:12.444Z,512.00
2023-06-14T08:15:58.736Z,400.00
2023-06-14T08:16:57.788Z,400.00
2023-06-14T08:17:57.728Z,400.00
2023-06-14T08:18:57.665Z,400.00
2023-06-14T08:19:57.551Z,400.00
2023-06-14T08:20:57.536Z,400.00
2023-06-14T08:21:57.776Z,400.00
2023-06-14T08:22:57.494Z,400.00
2023-06-14T08:23:57.547Z,400.00
2023-06-14T08:24:57.444Z,400.00
2023-06-14T08:25:57.557Z,400.00
2023-06-14T08:26:57.398Z,400.00
2023-06-14T08:27:57.322Z,400.00
2023-06-14T08:28:57.287Z,400.00
2023-06-14T08:29:57.283Z,400.00
2023-06-14T08:30:57.235Z,400.00
2023-06-14T08:31:57.258Z,400.00
2023-06-14T08:33:10.272Z,400.00
2023-06-14T08:33:58.293Z,400.00
2023-06-14T08:35:05.288Z,400.00
2023-06-14T08:35:58.145Z,400.00
2023-06-14T08:36:57.128Z,400.00
2023-06-14T08:37:57.107Z,400.00
2023-06-14T08:38:57.068Z,400.00
2023-06-14T08:39:57.067Z,400.00
2023-06-14T08:40:57.254Z,400.00
2023-06-14T08:41:57.058Z,400.00
2023-06-14T08:42:57.036Z,400.00
2023-06-14T08:43:57.008Z,400.00
2023-06-14T08:44:56.975Z,400.00
2023-06-14T08:45:56.982Z,400.00
2023-06-14T08:46:57.012Z,400.00
2023-06-14T08:47:57.104Z,400.00
2023-06-14T08:48:56.897Z,400.00
2023-06-14T08:49:56.914Z,400.00
2023-06-14T08:50:56.865Z,400.00
2023-06-14T08:51:56.849Z,400.00
2023-06-14T08:52:56.823Z,400.00
2023-06-14T08:53:56.823Z,400.00
2023-06-14T08:54:56.791Z,400.00
2023-06-14T08:55:56.786Z,400.00
2023-06-14T08:56:56.785Z,400.00
2023-06-14T08:57:57.335Z,400.00
2023-06-14T08:58:56.762Z,400.00
2023-06-14T08:59:56.758Z,400.00
2023-06-14T09:00:56.834Z,400.00
2023-06-14T09:02:11.760Z,400.00
2023-06-14T09:02:57.894Z,400.00
2023-06-14T09:03:56.786Z,400.00
2023-06-14T09:04:56.742Z,400.00
2023-06-14T09:05:56.785Z,400.00
2023-06-14T09:06:56.721Z,400.00
2023-06-14T09:07:56.676Z,446.00
2023-06-14T09:08:56.660Z,523.00
2023-06-14T09:10:07.059Z,484.00
2023-06-14T09:10:57.594Z,481.00
2023-06-14T09:11:56.560Z,449.00
2023-06-14T09:12:56.536Z,474.00
2023-06-14T09:13:56.556Z,442.00
2023-06-14T09:14:56.499Z,414.00
2023-06-14T09:15:56.456Z,402.00
2023-06-14T09:16:56.451Z,411.00
2023-06-14T09:17:56.429Z,462.00
2023-06-14T09:18:58.057Z,526.00
2023-06-14T09:19:56.359Z,541.00
2023-06-14T09:20:56.320Z,500.00
2023-06-14T09:21:56.292Z,517.00
2023-06-14T09:22:56.260Z,494.00
2023-06-14T09:23:56.271Z,515.00
2023-06-14T09:24:56.194Z,519.00
2023-06-14T09:25:56.198Z,581.00
2023-06-14T09:26:56.174Z,631.00
2023-06-14T09:27:56.134Z,597.00
2023-06-14T09:28:56.095Z,624.00
2023-06-14T09:29:56.075Z,590.00
2023-06-14T09:30:56.161Z,559.00
2023-06-14T09:31:56.031Z,542.00
2023-06-14T09:32:56.039Z,508.00
2023-06-14T09:33:55.945Z,461.00
2023-06-14T09:34:55.939Z,530.00
2023-06-14T09:35:55.899Z,569.00
2023-06-14T09:36:55.888Z,571.00
2023-06-14T09:37:55.825Z,571.00
2023-06-14T09:38:55.791Z,558.00
2023-06-14T09:39:55.767Z,593.00
2023-06-14T09:40:55.737Z,536.00
2023-06-14T09:41:55.708Z,523.00
2023-06-14T09:42:55.818Z,526.00
2023-06-14T09:43:55.733Z,550.00
2023-06-14T09:44:55.640Z,467.00
2023-06-14T09:45:55.574Z,400.00
2023-06-14T09:46:55.577Z,400.00
2023-06-14T09:48:55.594Z,400.00
2023-06-14T09:49:55.525Z,400.00
2023-06-14T09:50:55.480Z,400.00
2023-06-14T09:51:55.487Z,400.00
2023-06-14T09:52:55.480Z,400.00
2023-06-14T09:53:55.487Z,400.00
2023-06-14T09:54:55.440Z,400.00
2023-06-14T09:55:55.430Z,400.00
2023-06-14T09:56:55.406Z,400.00
2023-06-14T09:57:55.391Z,400.00
2023-06-14T09:59:06.888Z,475.00
2023-06-14T09:59:56.351Z,478.00
2023-06-14T10:00:55.292Z,481.00
2023-06-14T10:01:55.314Z,522.00
2023-06-14T10:02:55.317Z,607.00
2023-06-14T10:04:06.849Z,837.00
2023-06-14T10:04:56.225Z,490.00
2023-06-14T10:05:55.160Z,552.00
2023-06-14T10:06:55.168Z,657.00
2023-06-14T10:07:55.114Z,1122.00
2023-06-14T10:08:55.066Z,1894.00
2023-06-14T10:09:55.068Z,1754.00
2023-06-14T10:10:55.032Z,1649.00
2023-06-14T10:11:54.999Z,1574.00
2023-06-14T10:12:54.968Z,1698.00
2023-06-14T10:13:54.938Z,1813.00
2023-06-14T10:14:56.516Z,2010.00
2023-06-14T10:15:54.954Z,2212.00
2023-06-14T10:16:55.055Z,2468.00
2023-06-14T10:17:54.833Z,2448.00
2023-06-14T10:18:54.775Z,2531.00
2023-06-14T10:19:54.744Z,2774.00
2023-06-14T10:20:54.719Z,2912.00
2023-06-14T10:21:54.717Z,2910.00
2023-06-14T10:22:54.699Z,3003.00
2023-06-14T10:23:54.827Z,3164.00
2023-06-14T10:24:54.654Z,3354.00
2023-06-14T10:25:54.789Z,3073.00
2023-06-14T10:26:55.514Z,3225.00
2023-06-14T10:27:54.566Z,3410.00
2023-06-14T10:28:54.486Z,3414.00
2023-06-14T10:29:54.413Z,3430.00
2023-06-14T10:30:54.367Z,3426.00
2023-06-14T10:31:54.328Z,3383.00
2023-06-14T10:32:54.294Z,3464.00
2023-06-14T10:33:54.221Z,3492.00
2023-06-14T10:34:54.230Z,3338.00
2023-06-14T10:35:54.155Z,3000.00
2023-06-14T10:36:54.119Z,2802.00
2023-06-14T10:37:54.096Z,2839.00
2023-06-14T10:38:54.093Z,3135.00
2023-06-14T10:39:54.095Z,3390.00
2023-06-14T10:40:54.116Z,3657.00
2023-06-14T10:41:54.150Z,3906.00
2023-06-14T10:42:54.139Z,4086.00
2023-06-14T10:43:54.138Z,4216.00
2023-06-14T10:44:54.149Z,4271.00
2023-06-14T10:45:54.198Z,4365.00
2023-06-14T10:46:54.129Z,4446.00
2023-06-14T10:47:54.201Z,4521.00
2023-06-14T10:48:54.103Z,4579.00
2023-06-14T10:49:54.116Z,4641.00
2023-06-14T10:50:54.076Z,4673.00
2023-06-14T10:51:54.126Z,4711.00
2023-06-14T10:52:54.094Z,4791.00
2023-06-14T10:53:54.049Z,4784.00
2023-06-14T10:54:54.046Z,4823.00
2023-06-14T10:55:54.040Z,4890.00
2023-06-14T10:56:54.011Z,4924.00
2023-06-14T10:57:55.425Z,5002.00
2023-06-14T10:58:53.987Z,5072.00
2023-06-14T10:59:53.953Z,5092.00
2023-06-14T11:00:53.962Z,5135.00
2023-06-14T11:01:53.970Z,5122.00
2023-06-14T11:02:53.948Z,5139.00
2023-06-14T11:03:53.897Z,5148.00
2023-06-14T11:04:53.851Z,5144.00
2023-06-14T11:05:53.950Z,5194.00
2023-06-14T11:06:53.787Z,5172.00
2023-06-14T11:07:53.746Z,5191.00
2023-06-14T11:08:53.734Z,5221.00
2023-06-14T11:09:53.708Z,5222.00
2023-06-14T11:10:53.665Z,5238.00
2023-06-14T11:11:53.636Z,5313.00
2023-06-14T11:14:12.258Z,500.00
2023-06-14T11:15:12.300Z,500.00
2023-06-14T11:16:12.339Z,500.00
2023-06-14T11:17:12.282Z,500.00
2023-06-14T11:18:12.250Z,500.00
2023-06-14T11:19:12.261Z,514.00
2023-06-14T11:20:12.287Z,529.00
2023-06-14T11:21:12.276Z,551.00
2023-06-14T11:22:12.265Z,551.00
2023-06-14T11:23:12.246Z,551.00
2023-06-14T11:24:12.315Z,550.00
2023-06-14T11:25:12.269Z,562.00
2023-06-14T11:26:12.930Z,579.00
2023-06-14T11:27:12.473Z,602.00
2023-06-14T11:28:12.253Z,611.00
2023-06-14T11:29:12.248Z,612.00
2023-06-14T11:30:12.261Z,614.00
2023-06-14T11:31:12.275Z,615.00
2023-06-14T11:32:12.249Z,615.00
2023-06-14T11:33:12.260Z,640.00
2023-06-14T11:34:12.225Z,633.00
2023-06-14T11:35:12.231Z,633.00
2023-06-14T11:36:12.228Z,640.00
2023-06-14T11:37:12.290Z,638.00
2023-06-14T11:38:12.361Z,634.00
2023-06-14T11:39:12.439Z,633.00
2023-06-14T11:40:12.480Z,633.00
2023-06-14T11:41:12.528Z,631.00
2023-06-14T11:42:12.627Z,634.00
2023-06-14T11:43:12.651Z,639.00
2023-06-14T11:44:12.762Z,637.00
2023-06-14T11:45:12.766Z,637.00
2023-06-14T11:46:12.820Z,633.00
2023-06-14T11:47:12.973Z,633.00
2023-06-14T11:48:12.961Z,620.00
2023-06-14T11:49:12.986Z,636.00
2023-06-14T11:50:13.051Z,652.00
2023-06-14T11:51:13.129Z,660.00
2023-06-14T11:52:13.200Z,694.00
2023-06-14T11:53:13.240Z,651.00
2023-06-14T11:54:13.948Z,650.00
2023-06-14T11:55:13.478Z,649.00
2023-06-14T11:56:14.338Z,652.00
2023-06-14T11:57:13.443Z,665.00
2023-06-14T11:58:13.504Z,694.00
2023-06-14T11:59:13.577Z,698.00
2023-06-14T12:00:13.654Z,686.00
2023-06-14T12:01:13.672Z,743.00
2023-06-14T12:02:13.759Z,696.00
2023-06-14T12:03:13.816Z,696.00
2023-06-14T12:04:13.830Z,743.00
2023-06-14T12:05:14.057Z,715.00
2023-06-14T12:06:13.986Z,708.00
2023-06-14T12:07:14.034Z,686.00
2023-06-14T12:08:14.064Z,701.00
2023-06-14T12:09:14.637Z,680.00
2023-06-14T12:10:14.184Z,695.00
2023-06-14T12:11:14.257Z,696.00
2023-06-14T12:12:14.281Z,732.00
2023-06-14T12:13:14.359Z,686.00
2023-06-14T12:14:14.434Z,705.00
2023-06-14T12:15:14.886Z,684.00
2023-06-14T12:16:14.498Z,657.00
2023-06-14T12:17:14.611Z,664.00
2023-06-14T12:18:14.607Z,683.00
2023-06-14T12:19:14.675Z,698.00
2023-06-14T12:20:14.720Z,681.00